Time;durP1;ratioP1;P1;durP2;ratioP2;P2;SDS_P1;SDS_P2;PMS_P1;PMS_P2;Temp;Humidity;BMP_temperature;BMP_pressure;BME280_temperature;BME280_humidity;BME280_pressure;Samples;Min_cycle;Max_cycle;Signal;HPM_P1;HPM_P2
2023/04/17 00:00:16;;;;;;;12.05;6.43;;;;;;;;;;2064260;28;20038;-91
2023/04/17 00:01:17;;;;;;;8.68;5.68;;;;;;;;;;2081837;28;20068;-89
2023/04/17 00:02:18;;;;;;;13.70;5.85;;;;;;;;;;2073234;28;20083;-89
2023/04/17 00:03:18;;;;;;;7.15;4.95;;;;;;;;;;2064879;28;20053;-89
2023/04/17 00:04:20;;;;;;;8.50;6.00;;;;;;;;;;2072900;28;20030;-90
2023/04/17 00:05:21;;;;;;;10.27;5.93;;;;;;;;;;2077166;28;20080;-90
2023/04/17 00:06:23;;;;;;;10.88;6.05;;;;;;;;;;2071776;28;20105;-91
2023/04/17 00:07:27;;;;;;;9.82;5.68;;;;;;;;;;2078373;28;20106;-89
2023/04/17 00:08:29;;;;;;;10.85;5.20;;;;;;;;;;2071851;28;20080;-91
2023/04/17 00:09:30;;;;;;;9.23;5.72;;;;;;;;;;2072157;28;20473;-90
2023/04/17 00:10:30;;;;;;;9.05;5.88;;;;;;;;;;2064024;28;20038;-89
2023/04/17 00:11:31;;;;;;;8.23;5.78;;;;;;;;;;2055619;28;20038;-90
2023/04/17 00:12:31;;;;;;;;;;;;;;;;;;2064258;28;20076;-90
2023/04/17 00:13:32;;;;;;;11.60;6.50;;;;;;;;;;2071930;28;19917;-90
2023/04/17 00:14:32;;;;;;;8.77;6.30;;;;;;;;;;2071709;28;20176;-90
2023/04/17 00:15:32;;;;;;;11.73;6.30;;;;;;;;;;2063220;28;20046;-91
2023/04/17 00:16:33;;;;;;;9.90;6.20;;;;;;;;;;2072434;28;20142;-90
2023/04/17 00:17:33;;;;;;;8.75;5.40;;;;;;;;;;2072335;28;20029;-90
2023/04/17 00:18:34;;;;;;;9.55;5.55;;;;;;;;;;2080169;28;20100;-90
2023/04/17 00:19:34;;;;;;;12.30;6.10;;;;;;;;;;2080232;28;20036;-92
2023/04/17 00:20:35;;;;;;;9.75;6.47;;;;;;;;;;2080779;28;20401;-90
2023/04/17 00:21:35;;;;;;;10.73;6.18;;;;;;;;;;2080700;28;20487;-90
2023/04/17 00:22:36;;;;;;;9.30;6.30;;;;;;;;;;2071935;28;20033;-90
2023/04/17 00:23:37;;;;;;;10.38;5.80;;;;;;;;;;2063858;28;20027;-90
2023/04/17 00:24:37;;;;;;;11.65;6.38;;;;;;;;;;2071908;28;20033;-89
2023/04/17 00:25:37;;;;;;;;;;;;;;;;;;2080534;28;20376;-90
2023/04/17 00:26:38;;;;;;;9.97;6.07;;;;;;;;;;2071914;28;19920;-89
2023/04/17 00:27:40;;;;;;;;;;;;;;;;;;2072378;28;20033;-90
2023/04/17 00:28:40;;;;;;;8.90;5.82;;;;;;;;;;2071715;28;19917;-90
2023/04/17 00:29:41;;;;;;;12.00;6.53;;;;;;;;;;2071961;28;20091;-90
2023/04/17 00:30:41;;;;;;;11.02;6.20;;;;;;;;;;2080773;28;20570;-90
2023/04/17 00:31:42;;;;;;;11.05;6.55;;;;;;;;;;2081169;28;20033;-91
2023/04/17 00:32:42;;;;;;;15.50;6.55;;;;;;;;;;2083029;28;20032;-91
2023/04/17 00:33:45;;;;;;;9.95;6.32;;;;;;;;;;2088734;28;20069;-90
2023/04/17 00:34:45;;;;;;;11.05;6.30;;;;;;;;;;2090177;28;20064;-89
2023/04/17 00:35:45;;;;;;;10.35;7.07;;;;;;;;;;2089151;28;20033;-90
2023/04/17 00:36:46;;;;;;;10.05;5.90;;;;;;;;;;2080540;28;20033;-91
2023/04/17 00:37:48;;;;;;;10.80;7.13;;;;;;;;;;2077421;28;20052;-90
2023/04/17 00:38:49;;;;;;;10.60;6.80;;;;;;;;;;2080532;28;20658;-90
2023/04/17 00:39:49;;;;;;;11.90;6.30;;;;;;;;;;2080143;28;20108;-90
2023/04/17 00:40:50;;;;;;;11.43;6.28;;;;;;;;;;2080181;28;20105;-90
2023/04/17 00:41:51;;;;;;;9.95;5.70;;;;;;;;;;2089196;28;20025;-89
2023/04/17 00:42:54;;;;;;;10.60;6.00;;;;;;;;;;2079806;28;20424;-90
2023/04/17 00:43:55;;;;;;;10.88;6.20;;;;;;;;;;2080470;28;20021;-90
2023/04/17 00:44:56;;;;;;;12.35;7.07;;;;;;;;;;1905760;28;5001085;-90
2023/04/17 00:45:56;;;;;;;;;;;;;;;;;;2071617;28;20124;-91
2023/04/17 00:46:57;;;;;;;9.87;6.00;;;;;;;;;;2080326;28;19916;-91
2023/04/17 00:47:59;;;;;;;9.52;6.15;;;;;;;;;;2072220;28;20064;-92
2023/04/17 00:49:00;;;;;;;9.18;5.90;;;;;;;;;;2072418;28;20034;-92
2023/04/17 00:50:02;;;;;;;9.00;5.97;;;;;;;;;;2072074;28;20662;-92
2023/04/17 00:51:02;;;;;;;9.30;6.22;;;;;;;;;;2080225;28;20029;-91
2023/04/17 00:52:03;;;;;;;10.32;6.25;;;;;;;;;;2088965;28;20191;-91
2023/04/17 00:53:04;;;;;;;11.05;6.55;;;;;;;;;;2080130;28;20032;-90
2023/04/17 00:54:05;;;;;;;;;;;;;;;;;;2080974;28;20478;-91
2023/04/17 00:55:06;;;;;;;13.98;6.57;;;;;;;;;;2080392;28;19909;-91
2023/04/17 00:56:07;;;;;;;;;;;;;;;;;;1733916;28;10001848;-90
2023/04/17 00:57:07;;;;;;;12.57;6.80;;;;;;;;;;2080473;28;19916;-90
2023/04/17 00:58:08;;;;;;;11.43;6.70;;;;;;;;;;2080118;28;20029;-90
2023/04/17 00:59:16;;;;;;;11.90;6.22;;;;;;;;;;2080365;28;20380;-90
2023/04/17 01:00:17;;;;;;;11.25;5.70;;;;;;;;;;2088436;28;20029;-90
2023/04/17 01:01:17;;;;;;;10.07;6.15;;;;;;;;;;2088597;28;20029;-90
2023/04/17 01:02:18;;;;;;;10.57;6.15;;;;;;;;;;2080091;28;20034;-90
2023/04/17 01:03:20;;;;;;;8.98;6.30;;;;;;;;;;2080051;28;20029;-89
2023/04/17 01:04:20;;;;;;;12.93;6.97;;;;;;;;;;2080285;28;20064;-89
2023/04/17 01:05:21;;;;;;;12.07;6.30;;;;;;;;;;2080171;28;20064;-89
2023/04/17 01:06:21;;;;;;;13.02;7.65;;;;;;;;;;2080023;28;20030;-90
2023/04/17 01:07:22;;;;;;;10.70;7.05;;;;;;;;;;2070554;28;20040;-89
2023/04/17 01:08:22;;;;;;;12.60;6.55;;;;;;;;;;2063745;28;20358;-89
2023/04/17 01:09:23;;;;;;;10.88;7.07;;;;;;;;;;2063834;28;20127;-89
2023/04/17 01:10:24;;;;;;;10.95;6.70;;;;;;;;;;2080054;28;20408;-90
2023/04/17 01:11:24;;;;;;;11.07;7.10;;;;;;;;;;2080059;28;20196;-89
2023/04/17 01:12:25;;;;;;;12.10;7.25;;;;;;;;;;2063632;28;20041;-90
2023/04/17 01:13:25;;;;;;;;;;;;;;;;;;2072293;28;20035;-90
2023/04/17 01:14:26;;;;;;;12.17;5.70;;;;;;;;;;2081114;28;20012;-90
2023/04/17 01:15:26;;;;;;;9.52;6.00;;;;;;;;;;2081636;28;20033;-91
2023/04/17 01:16:29;;;;;;;11.38;6.18;;;;;;;;;;2081379;28;20075;-89
2023/04/17 01:17:30;;;;;;;14.40;6.28;;;;;;;;;;2081615;28;20028;-90
2023/04/17 01:18:30;;;;;;;11.88;5.95;;;;;;;;;;2081219;28;20052;-92
2023/04/17 01:19:31;;;;;;;10.15;6.00;;;;;;;;;;2081664;28;20034;-91
2023/04/17 01:20:32;;;;;;;10.85;6.88;;;;;;;;;;2082363;28;20112;-90
2023/04/17 01:21:33;;;;;;;10.23;6.30;;;;;;;;;;2082468;28;20079;-91
2023/04/17 01:22:34;;;;;;;11.75;6.35;;;;;;;;;;2081654;28;20029;-91
2023/04/17 01:23:48;;;;;;;12.50;6.65;;;;;;;;;;2081756;28;20510;-92
2023/04/17 01:24:49;;;;;;;10.93;6.38;;;;;;;;;;2075909;28;20026;-91
2023/04/17 01:25:50;;;;;;;9.82;5.45;;;;;;;;;;2085137;28;20027;-91
2023/04/17 01:26:50;;;;;;;8.55;5.95;;;;;;;;;;2098662;28;20032;-90
2023/04/17 01:27:51;;;;;;;13.20;6.47;;;;;;;;;;2097674;28;20116;-91
2023/04/17 01:28:53;;;;;;;17.90;7.10;;;;;;;;;;2090995;28;20043;-91
2023/04/17 01:29:54;;;;;;;14.82;7.07;;;;;;;;;;2092067;28;20472;-92
2023/04/17 01:30:54;;;;;;;13.95;7.47;;;;;;;;;;2091227;28;20024;-92
2023/04/17 01:31:55;;;;;;;13.88;6.88;;;;;;;;;;2090844;28;20098;-92
2023/04/17 01:32:55;;;;;;;14.73;7.03;;;;;;;;;;2081626;28;20116;-92
2023/04/17 01:33:56;;;;;;;14.70;7.68;;;;;;;;;;2081532;28;20163;-92
2023/04/17 01:34:58;;;;;;;16.30;8.25;;;;;;;;;;2089833;28;20017;-90
2023/04/17 01:35:59;;;;;;;11.80;8.02;;;;;;;;;;2081432;28;20026;-91
2023/04/17 01:36:59;;;;;;;14.60;8.25;;;;;;;;;;2081418;28;20025;-90
2023/04/17 01:38:00;;;;;;;12.50;7.95;;;;;;;;;;2081276;28;20079;-90
2023/04/17 01:39:00;;;;;;;16.27;8.38;;;;;;;;;;2073377;28;20055;-91
2023/04/17 01:40:01;;;;;;;;;;;;;;;;;;2073570;28;20528;-91
2023/04/17 01:41:08;;;;;;;15.13;7.80;;;;;;;;;;2081491;28;20502;-90
2023/04/17 01:42:08;;;;;;;15.52;8.07;;;;;;;;;;2081220;28;20041;-91
2023/04/17 01:43:09;;;;;;;12.77;7.72;;;;;;;;;;2081611;28;20029;-90
2023/04/17 01:44:11;;;;;;;12.90;7.10;;;;;;;;;;2090630;28;20025;-91
2023/04/17 01:45:17;;;;;;;15.55;8.05;;;;;;;;;;2090420;28;20123;-90
2023/04/17 01:46:18;;;;;;;15.35;8.20;;;;;;;;;;2090435;28;20029;-92
2023/04/17 01:47:18;;;;;;;14.38;8.60;;;;;;;;;;2081390;28;20084;-92
2023/04/17 01:48:19;;;;;;;16.33;9.38;;;;;;;;;;2073042;28;20036;-92
2023/04/17 01:49:19;;;;;;;21.27;9.20;;;;;;;;;;2081383;28;20152;-92
2023/04/17 01:50:20;;;;;;;14.88;8.90;;;;;;;;;;2090574;28;20025;-91
2023/04/17 01:51:20;;;;;;;17.65;9.05;;;;;;;;;;2089598;28;20408;-92
2023/04/17 01:52:21;;;;;;;20.85;9.60;;;;;;;;;;2081333;28;20566;-91
2023/04/17 01:53:22;;;;;;;17.75;9.52;;;;;;;;;;2081517;28;20049;-92
2023/04/17 01:54:23;;;;;;;19.15;9.32;;;;;;;;;;2090441;28;20037;-92
2023/04/17 01:55:24;;;;;;;9.38;6.15;;;;;;;;;;2090145;28;20090;-91
2023/04/17 01:56:30;;;;;;;15.07;9.00;;;;;;;;;;871089;28;10021824;-92
2023/04/17 01:57:32;;;;;;;16.00;8.30;;;;;;;;;;2073856;28;20726;-89
2023/04/17 01:58:33;;;;;;;15.30;8.43;;;;;;;;;;2081673;28;20037;-92
2023/04/17 01:59:33;;;;;;;17.05;9.13;;;;;;;;;;2081221;28;20476;-89
2023/04/17 02:00:34;;;;;;;16.67;9.15;;;;;;;;;;2081288;28;20401;-91
2023/04/17 02:01:35;;;;;;;15.68;8.63;;;;;;;;;;2090158;28;20369;-90
2023/04/17 02:02:38;;;;;;;14.18;9.25;;;;;;;;;;2090438;28;20028;-90
2023/04/17 02:03:39;;;;;;;16.85;8.52;;;;;;;;;;2086844;28;20045;-89
2023/04/17 02:04:39;;;;;;;16.75;8.93;;;;;;;;;;2091401;28;20025;-89
2023/04/17 02:05:40;;;;;;;17.30;8.50;;;;;;;;;;2100234;28;20029;-88
2023/04/17 02:06:40;;;;;;;16.25;8.35;;;;;;;;;;2089199;28;20069;-88
2023/04/17 02:07:41;;;;;;;16.85;8.90;;;;;;;;;;2090734;28;20033;-89
2023/04/17 02:08:41;;;;;;;18.42;9.07;;;;;;;;;;2091014;28;20043;-89
2023/04/17 02:09:42;;;;;;;18.60;9.18;;;;;;;;;;2083315;28;20029;-89
2023/04/17 02:10:43;;;;;;;18.88;9.27;;;;;;;;;;2073935;28;20958;-89
2023/04/17 02:11:45;;;;;;;17.65;9.07;;;;;;;;;;2074169;28;20030;-89
2023/04/17 02:12:46;;;;;;;16.77;8.77;;;;;;;;;;2081689;28;20021;-89
2023/04/17 02:13:46;;;;;;;15.40;8.90;;;;;;;;;;2073206;28;20030;-89
2023/04/17 02:14:47;;;;;;;16.63;8.75;;;;;;;;;;2081162;28;20484;-91
2023/04/17 02:15:48;;;;;;;12.35;8.25;;;;;;;;;;2089224;28;20383;-91
2023/04/17 02:16:49;;;;;;;14.55;8.65;;;;;;;;;;2090280;28;20060;-90
2023/04/17 02:17:51;;;;;;;22.30;10.93;;;;;;;;;;2090183;28;20021;-91
2023/04/17 02:18:55;;;;;;;18.55;9.45;;;;;;;;;;2089631;28;20098;-90
2023/04/17 02:19:55;;;;;;;18.98;9.60;;;;;;;;;;2094478;28;20021;-90
2023/04/17 02:20:56;;;;;;;16.20;9.15;;;;;;;;;;2097272;28;20055;-89
2023/04/17 02:21:56;;;;;;;13.25;8.05;;;;;;;;;;2093281;28;20377;-90
2023/04/17 02:22:59;;;;;;;20.20;8.90;;;;;;;;;;2089843;28;20052;-91
2023/04/17 02:23:59;;;;;;;17.55;9.02;;;;;;;;;;2090936;28;20068;-90
2023/04/17 02:25:00;;;;;;;17.30;9.27;;;;;;;;;;2099794;28;20006;-91
2023/04/17 02:26:03;;;;;;;19.27;9.13;;;;;;;;;;2091091;28;20032;-92
2023/04/17 02:27:04;;;;;;;15.80;8.55;;;;;;;;;;2091623;28;20080;-92
2023/04/17 02:28:05;;;;;;;14.60;8.93;;;;;;;;;;2094424;28;20399;-91
2023/04/17 02:29:05;;;;;;;17.70;8.70;;;;;;;;;;2090439;28;20146;-91
2023/04/17 02:30:07;;;;;;;17.70;8.68;;;;;;;;;;2090355;28;20051;-91
2023/04/17 02:31:08;;;;;;;14.65;8.48;;;;;;;;;;2081348;28;20033;-90
2023/04/17 02:32:08;;;;;;;13.25;8.10;;;;;;;;;;2073452;28;20029;-90
2023/04/17 02:33:11;;;;;;;14.13;7.78;;;;;;;;;;2081309;28;20028;-91
2023/04/17 02:34:12;;;;;;;15.48;8.40;;;;;;;;;;2080947;28;20027;-91
2023/04/17 02:35:12;;;;;;;13.73;8.52;;;;;;;;;;2081017;28;20040;-90
2023/04/17 02:36:16;;;;;;;13.35;7.95;;;;;;;;;;2081060;28;20026;-91
2023/04/17 02:37:16;;;;;;;18.75;8.68;;;;;;;;;;2072644;28;20029;-91
2023/04/17 02:38:17;;;;;;;15.52;7.47;;;;;;;;;;2064693;28;20120;-90
2023/04/17 02:39:17;;;;;;;11.05;7.22;;;;;;;;;;2072772;28;20033;-90
2023/04/17 02:40:18;;;;;;;12.02;7.45;;;;;;;;;;2081118;28;20936;-94
2023/04/17 02:41:18;;;;;;;14.40;7.63;;;;;;;;;;2084120;28;20025;-91
2023/04/17 02:42:21;;;;;;;12.98;7.57;;;;;;;;;;2075206;28;20180;-91
2023/04/17 02:43:21;;;;;;;16.13;8.90;;;;;;;;;;2064804;28;20101;-92
2023/04/17 02:44:21;;;;;;;15.05;8.52;;;;;;;;;;2072509;28;20485;-92
2023/04/17 02:45:22;;;;;;;13.73;8.13;;;;;;;;;;2064569;28;20502;-91
2023/04/17 02:46:22;;;;;;;;;;;;;;;;;;2072655;28;20038;-90
2023/04/17 02:47:23;;;;;;;12.97;7.50;;;;;;;;;;2081315;28;19909;-91
2023/04/17 02:48:23;;;;;;;16.33;8.75;;;;;;;;;;2072827;28;20116;-90
2023/04/17 02:49:24;;;;;;;16.60;7.93;;;;;;;;;;2072867;28;20100;-90
2023/04/17 02:50:27;;;;;;;14.77;8.25;;;;;;;;;;2076018;28;20025;-90
2023/04/17 02:51:27;;;;;;;11.88;7.93;;;;;;;;;;2065760;28;20030;-89
2023/04/17 02:52:29;;;;;;;16.45;8.90;;;;;;;;;;2074458;28;20025;-89
2023/04/17 02:53:30;;;;;;;15.32;7.95;;;;;;;;;;2072887;28;20492;-91
2023/04/17 02:54:30;;;;;;;17.73;8.55;;;;;;;;;;2072787;28;20038;-90
2023/04/17 02:55:31;;;;;;;15.02;8.13;;;;;;;;;;2081742;28;20444;-89
2023/04/17 02:56:31;;;;;;;15.50;8.73;;;;;;;;;;2080780;28;20075;-89
2023/04/17 02:57:32;;;;;;;14.93;8.77;;;;;;;;;;2074896;28;20153;-90
2023/04/17 02:58:32;;;;;;;13.90;7.95;;;;;;;;;;2064671;28;20129;-89
2023/04/17 02:59:35;;;;;;;12.93;8.00;;;;;;;;;;2073029;28;20101;-90
2023/04/17 03:00:37;;;;;;;14.48;8.80;;;;;;;;;;2081965;28;20037;-89
2023/04/17 03:01:39;;;;;;;15.73;8.85;;;;;;;;;;2080967;28;20531;-92
2023/04/17 03:02:40;;;;;;;16.50;8.77;;;;;;;;;;2073073;28;20042;-92
2023/04/17 03:03:41;;;;;;;16.05;9.70;;;;;;;;;;2072791;28;20508;-93
2023/04/17 03:04:42;;;;;;;14.50;8.65;;;;;;;;;;2064934;28;20038;-93
2023/04/17 03:05:44;;;;;;;17.35;8.98;;;;;;;;;;2072979;28;20054;-91
2023/04/17 03:06:45;;;;;;;15.55;8.93;;;;;;;;;;2065338;28;20096;-91
2023/04/17 03:07:48;;;;;;;18.08;8.55;;;;;;;;;;2061379;28;20573;-91
2023/04/17 03:08:49;;;;;;;14.88;8.52;;;;;;;;;;2057450;28;20085;-92
2023/04/17 03:09:52;;;;;;;20.33;9.07;;;;;;;;;;2064937;28;20445;-93
2023/04/17 03:10:53;;;;;;;17.67;8.90;;;;;;;;;;2065101;28;20026;-92
2023/04/17 03:11:54;;;;;;;15.52;8.02;;;;;;;;;;2072774;28;20034;-92
2023/04/17 03:12:54;;;;;;;18.85;8.57;;;;;;;;;;2073012;28;20120;-92
2023/04/17 03:13:55;;;;;;;18.95;9.02;;;;;;;;;;2079540;28;20085;-91
2023/04/17 03:14:56;;;;;;;17.60;8.88;;;;;;;;;;2081455;28;20030;-87
2023/04/17 03:15:57;;;;;;;15.55;8.85;;;;;;;;;;2066457;28;20045;-90
2023/04/17 03:17:00;;;;;;;17.75;8.80;;;;;;;;;;2073297;28;20505;-90
2023/04/17 03:18:00;;;;;;;18.65;8.68;;;;;;;;;;2081851;28;20048;-89
2023/04/17 03:19:02;;;;;;;21.40;10.68;;;;;;;;;;2072864;28;20109;-89
2023/04/17 03:20:06;;;;;;;16.58;9.98;;;;;;;;;;2073157;28;20030;-90
2023/04/17 03:21:07;;;;;;;17.92;9.60;;;;;;;;;;2081730;28;20495;-91
2023/04/17 03:22:07;;;;;;;20.42;9.60;;;;;;;;;;2081571;28;20025;-91
2023/04/17 03:23:08;;;;;;;15.30;8.32;;;;;;;;;;2081710;28;20077;-91
2023/04/17 03:24:10;;;;;;;16.20;9.57;;;;;;;;;;2072335;28;20029;-90
2023/04/17 03:25:19;;;;;;;18.20;9.40;;;;;;;;;;2064489;28;20022;-90
2023/04/17 03:26:20;;;;;;;17.48;9.80;;;;;;;;;;2073926;28;20395;-90
2023/04/17 03:27:23;;;;;;;17.38;10.48;;;;;;;;;;2080762;28;20025;-92
2023/04/17 03:28:24;;;;;;;16.25;10.57;;;;;;;;;;2072212;28;20062;-91
2023/04/17 03:29:25;;;;;;;17.65;9.45;;;;;;;;;;2072725;28;20503;-92
2023/04/17 03:30:25;;;;;;;19.00;9.68;;;;;;;;;;2082535;28;20033;-92
2023/04/17 03:31:26;;;;;;;17.30;9.90;;;;;;;;;;2081609;28;20021;-91
2023/04/17 03:32:30;;;;;;;17.70;9.43;;;;;;;;;;2080805;28;20120;-92
2023/04/17 03:33:30;;;;;;;15.88;9.15;;;;;;;;;;2072581;28;20048;-91
2023/04/17 03:34:39;;;;;;;16.17;9.82;;;;;;;;;;2072316;28;20037;-93
2023/04/17 03:35:39;;;;;;;16.25;9.60;;;;;;;;;;2064385;28;20041;-90
2023/04/17 03:36:40;;;;;;;16.92;9.55;;;;;;;;;;2064489;28;20023;-90
2023/04/17 03:37:40;;;;;;;14.50;9.88;;;;;;;;;;2064002;28;20026;-91
2023/04/17 03:38:45;;;;;;;16.63;8.93;;;;;;;;;;2072303;28;20032;-91
2023/04/17 03:39:46;;;;;;;15.80;8.90;;;;;;;;;;2072656;28;20041;-92
2023/04/17 03:40:49;;;;;;;21.75;11.02;;;;;;;;;;2072294;28;20042;-92
2023/04/17 03:41:52;;;;;;;13.73;8.98;;;;;;;;;;2072440;28;20065;-92
2023/04/17 03:42:53;;;;;;;16.88;9.73;;;;;;;;;;2072466;28;20032;-92
2023/04/17 03:43:56;;;;;;;18.85;9.57;;;;;;;;;;2063809;28;20432;-92
2023/04/17 03:44:56;;;;;;;20.63;10.60;;;;;;;;;;2064641;28;20089;-91
2023/04/17 03:46:04;;;;;;;16.65;9.27;;;;;;;;;;2064341;28;20042;-92
2023/04/17 03:47:07;;;;;;;18.08;9.63;;;;;;;;;;2065512;28;20037;-93
2023/04/17 03:48:12;;;;;;;19.20;9.27;;;;;;;;;;2064976;28;20034;-94
2023/04/17 03:49:24;;;;;;;16.33;8.65;;;;;;;;;;2033120;28;10002084;-92
2023/04/17 03:50:25;;;;;;;15.90;8.93;;;;;;;;;;2074454;28;20285;-92
2023/04/17 03:51:26;;;;;;;17.35;9.50;;;;;;;;;;2080437;28;20033;-92
2023/04/17 03:52:26;;;;;;;14.60;9.18;;;;;;;;;;2080698;28;20187;-91
2023/04/17 03:53:30;;;;;;;17.70;9.43;;;;;;;;;;2083322;28;20109;-92
2023/04/17 03:54:34;;;;;;;16.83;9.60;;;;;;;;;;2080577;28;20338;-90
2023/04/17 03:55:34;;;;;;;15.57;9.10;;;;;;;;;;2083048;28;20027;-92
2023/04/17 03:56:35;;;;;;;17.13;8.77;;;;;;;;;;2080097;28;20041;-90
2023/04/17 03:57:37;;;;;;;;;;;;;;;;;;2081000;28;20026;-91
2023/04/17 03:58:40;;;;;;;17.30;9.30;;;;;;;;;;2089443;28;19909;-93
2023/04/17 03:59:42;;;;;;;16.25;9.82;;;;;;;;;;2079364;28;20040;-93
2023/04/17 04:00:44;;;;;;;17.27;9.77;;;;;;;;;;2064271;28;20030;-90
2023/04/17 04:01:45;;;;;;;15.60;9.00;;;;;;;;;;2071811;28;20037;-92
2023/04/17 04:02:46;;;;;;;15.05;8.02;;;;;;;;;;2071948;28;20033;-92
2023/04/17 04:03:46;;;;;;;20.42;9.50;;;;;;;;;;2071805;28;20030;-88
2023/04/17 04:04:49;;;;;;;16.48;8.63;;;;;;;;;;2063888;28;20146;-92
2023/04/17 04:05:52;;;;;;;17.30;9.25;;;;;;;;;;2064087;28;20040;-92
2023/04/17 04:06:56;;;;;;;16.10;8.98;;;;;;;;;;2073936;28;20117;-91
2023/04/17 04:07:57;;;;;;;18.83;8.63;;;;;;;;;;2076627;28;20030;-89
2023/04/17 04:09:00;;;;;;;15.38;9.00;;;;;;;;;;2079596;28;20014;-91
2023/04/17 04:10:00;;;;;;;19.13;9.30;;;;;;;;;;2072293;28;20059;-92
2023/04/17 04:11:02;;;;;;;14.93;8.88;;;;;;;;;;2080368;28;20411;-91
2023/04/17 04:12:02;;;;;;;13.88;8.63;;;;;;;;;;2072933;28;20049;-91
2023/04/17 04:13:05;;;;;;;16.77;8.65;;;;;;;;;;2064216;28;20022;-91
2023/04/17 04:14:06;;;;;;;13.15;8.85;;;;;;;;;;2064300;28;20026;-90
2023/04/17 04:15:07;;;;;;;16.35;9.38;;;;;;;;;;2072224;28;20658;-91
2023/04/17 04:16:08;;;;;;;16.20;8.38;;;;;;;;;;2072055;28;20021;-90
2023/04/17 04:17:08;;;;;;;18.83;8.70;;;;;;;;;;2064047;28;20026;-91
2023/04/17 04:18:11;;;;;;;17.58;8.75;;;;;;;;;;2064061;28;20022;-92
2023/04/17 04:19:11;;;;;;;17.70;9.07;;;;;;;;;;2072713;28;20323;-91
2023/04/17 04:20:12;;;;;;;13.98;8.45;;;;;;;;;;2072162;28;20029;-91
2023/04/17 04:21:12;;;;;;;14.63;8.60;;;;;;;;;;2073750;28;20029;-92
2023/04/17 04:22:13;;;;;;;17.90;9.00;;;;;;;;;;2089000;28;20025;-91
2023/04/17 04:23:15;;;;;;;15.73;8.95;;;;;;;;;;2080795;28;20048;-91
2023/04/17 04:24:16;;;;;;;13.20;8.65;;;;;;;;;;2079228;28;20473;-92
2023/04/17 04:25:16;;;;;;;19.38;8.57;;;;;;;;;;2078240;28;20029;-91
2023/04/17 04:26:36;;;;;;;13.90;8.00;;;;;;;;;;2080671;28;20026;-91
2023/04/17 04:27:38;;;;;;;15.90;8.57;;;;;;;;;;2071721;28;20041;-92
2023/04/17 04:28:38;;;;;;;11.65;8.07;;;;;;;;;;2072143;28;20485;-92
2023/04/17 04:29:39;;;;;;;12.10;7.80;;;;;;;;;;2080903;28;20073;-90
2023/04/17 04:30:40;;;;;;;17.23;8.25;;;;;;;;;;2072894;28;20040;-91
2023/04/17 04:31:41;;;;;;;14.50;8.90;;;;;;;;;;2063780;28;20049;-91
2023/04/17 04:32:44;;;;;;;13.82;8.45;;;;;;;;;;2063942;28;20031;-91
2023/04/17 04:33:45;;;;;;;13.07;7.93;;;;;;;;;;2064429;28;20030;-91
2023/04/17 04:34:46;;;;;;;16.30;8.70;;;;;;;;;;2072387;28;20026;-91
2023/04/17 04:35:47;;;;;;;16.30;9.50;;;;;;;;;;2083876;28;20026;-90
2023/04/17 04:36:50;;;;;;;18.70;10.15;;;;;;;;;;2082516;28;20164;-91
2023/04/17 04:37:54;;;;;;;15.40;8.32;;;;;;;;;;2071817;28;20007;-92
2023/04/17 04:38:58;;;;;;;14.40;8.63;;;;;;;;;;2075011;28;20030;-90
2023/04/17 04:41:10;;;;;;;14.32;8.00;;;;;;;;;;2141852;22;20038;-91
2023/04/17 04:42:20;;;;;;;16.27;8.60;;;;;;;;;;2059499;28;20074;-91
2023/04/17 04:55:45;;;;;;;13.75;8.95;;;;;;;;;;2070167;28;20043;-91
2023/04/17 04:56:45;;;;;;;15.75;8.00;;;;;;;;;;2071587;28;20022;-91
2023/04/17 04:57:46;;;;;;;17.05;8.23;;;;;;;;;;2075356;28;20017;-91
2023/04/17 04:58:47;;;;;;;14.18;7.35;;;;;;;;;;2075728;28;20014;-91
2023/04/17 05:03:23;;;;;;;15.67;9.17;;;;;;;;;;1722137;28;10001130;-91
2023/04/17 05:04:26;;;;;;;20.45;9.75;;;;;;;;;;2069193;28;20795;-91
2023/04/17 05:05:49;;;;;;;17.90;10.15;;;;;;;;;;2057411;28;20423;-92
2023/04/17 05:06:50;;;;;;;19.52;10.25;;;;;;;;;;2057397;28;20159;-91
2023/04/17 05:07:59;;;;;;;19.85;9.68;;;;;;;;;;2056898;28;20031;-91
2023/04/17 05:09:01;;;;;;;15.50;9.15;;;;;;;;;;2058338;28;20465;-91
2023/04/17 05:10:05;;;;;;;20.27;10.32;;;;;;;;;;2058641;28;20069;-91
2023/04/17 05:11:06;;;;;;;17.17;10.43;;;;;;;;;;2058397;28;20030;-92
2023/04/17 05:12:06;;;;;;;16.10;10.77;;;;;;;;;;2066950;28;20018;-89
2023/04/17 05:13:07;;;;;;;18.52;9.80;;;;;;;;;;2065159;28;20022;-90
2023/04/17 05:14:07;;;;;;;;;;;;;;;;;;2065775;28;20125;-90
2023/04/17 05:15:08;;;;;;;17.63;10.07;;;;;;;;;;2057099;28;19946;-90
2023/04/17 05:16:14;;;;;;;20.73;10.50;;;;;;;;;;2058371;28;20023;-91
2023/04/17 05:17:16;;;;;;;20.65;11.02;;;;;;;;;;2065997;28;20128;-90
2023/04/17 05:18:17;;;;;;;15.65;10.55;;;;;;;;;;2065910;28;20023;-90
2023/04/17 05:19:19;;;;;;;27.50;12.02;;;;;;;;;;2065720;28;20477;-91
2023/04/17 05:20:20;;;;;;;26.23;11.65;;;;;;;;;;2067174;28;20053;-90
2023/04/17 05:21:20;;;;;;;27.10;11.68;;;;;;;;;;2057516;28;20023;-89
2023/04/17 05:22:28;;;;;;;24.48;11.80;;;;;;;;;;2057466;28;20023;-90
2023/04/17 05:23:32;;;;;;;20.38;11.52;;;;;;;;;;2057561;28;20114;-91
2023/04/17 05:24:32;;;;;;;19.73;10.57;;;;;;;;;;2042511;29;20863;-91
2023/04/17 05:26:25;;;;;;;19.20;9.52;;;;;;;;;;2041803;29;20032;-92
2023/04/17 05:27:31;;;;;;;20.13;9.68;;;;;;;;;;2047378;29;20039;-91
2023/04/17 05:28:56;;;;;;;17.23;10.50;;;;;;;;;;2049579;28;20113;-91
2023/04/17 05:31:08;;;;;;;19.05;10.35;;;;;;;;;;2049607;28;20610;-91
2023/04/17 05:32:18;;;;;;;;;;;;;;;;;;2050513;28;20039;-91
2023/04/17 05:44:23;;;;;;;35.45;20.63;;;;;;;;;;1990500;29;20132;-90
2023/04/17 05:45:26;;;;;;;32.92;17.70;;;;;;;;;;2002559;29;20038;-92
2023/04/17 05:46:27;;;;;;;27.48;15.73;;;;;;;;;;2020357;29;20052;-91
2023/04/17 05:47:35;;;;;;;31.50;17.73;;;;;;;;;;2025519;29;20112;-91
2023/04/17 05:48:36;;;;;;;28.70;17.00;;;;;;;;;;2025911;29;20033;-88
2023/04/17 05:49:36;;;;;;;31.80;17.35;;;;;;;;;;2024795;29;20476;-88
2023/04/17 05:50:37;;;;;;;24.42;16.85;;;;;;;;;;2024799;29;20084;-87
2023/04/17 05:51:37;;;;;;;30.08;19.73;;;;;;;;;;2037921;28;20042;-88
2023/04/17 05:52:38;;;;;;;33.83;18.85;;;;;;;;;;2056593;28;20113;-88
2023/04/17 05:53:38;;;;;;;31.27;18.23;;;;;;;;;;2057006;28;20098;-88
2023/04/17 05:54:38;;;;;;;27.15;17.13;;;;;;;;;;2059557;28;20042;-89
2023/04/17 05:55:39;;;;;;;27.95;16.48;;;;;;;;;;2062881;28;20023;-88
2023/04/17 05:56:39;;;;;;;25.10;16.40;;;;;;;;;;2069836;28;20047;-89
2023/04/17 05:57:40;;;;;;;28.20;17.48;;;;;;;;;;2064975;28;20032;-89
2023/04/17 06:00:54;;;;;;;30.70;15.80;;;;;;;;;;2046649;29;19942;-89
2023/04/17 06:01:54;;;;;;;29.75;15.82;;;;;;;;;;2032026;29;20283;-87
2023/04/17 06:03:24;;;;;;;20.50;14.88;;;;;;;;;;2040421;29;20508;-87
2023/04/17 06:04:25;;;;;;;27.02;15.23;;;;;;;;;;2058167;28;20108;-88
2023/04/17 06:05:26;;;;;;;30.58;14.50;;;;;;;;;;2064526;28;20109;-89
2023/04/17 06:06:30;;;;;;;25.08;14.02;;;;;;;;;;2056716;28;20023;-90
2023/04/17 06:07:31;;;;;;;26.95;14.43;;;;;;;;;;2057119;28;20106;-88
2023/04/17 06:08:32;;;;;;;29.08;14.43;;;;;;;;;;2057283;28;20018;-90
2023/04/17 06:09:32;;;;;;;25.20;13.30;;;;;;;;;;2057606;28;20413;-88
2023/04/17 06:10:33;;;;;;;25.27;14.20;;;;;;;;;;2058280;28;20030;-88
2023/04/17 06:11:36;;;;;;;23.83;13.32;;;;;;;;;;2064140;28;20030;-88
2023/04/17 06:12:39;;;;;;;22.85;12.25;;;;;;;;;;2063033;28;20501;-88
2023/04/17 06:13:42;;;;;;;23.40;12.02;;;;;;;;;;2055091;28;20446;-88
2023/04/17 06:14:45;;;;;;;22.90;13.10;;;;;;;;;;2054990;28;20097;-88
2023/04/17 06:15:45;;;;;;;18.20;11.90;;;;;;;;;;2055620;28;20552;-88
2023/04/17 06:16:45;;;;;;;23.38;13.43;;;;;;;;;;2062964;28;20283;-89
2023/04/17 06:17:46;;;;;;;23.60;13.68;;;;;;;;;;2063106;28;20030;-89
2023/04/17 06:18:46;;;;;;;25.30;15.32;;;;;;;;;;2056071;28;20090;-88
2023/04/17 06:19:47;;;;;;;27.02;17.52;;;;;;;;;;2057250;28;20031;-91
2023/04/17 06:20:47;;;;;;;18.45;12.38;;;;;;;;;;2057789;28;20071;-92
2023/04/17 06:21:48;;;;;;;22.08;13.40;;;;;;;;;;2057391;28;20022;-91
2023/04/17 06:22:55;;;;;;;27.30;14.77;;;;;;;;;;2056650;28;20118;-91
2023/04/17 06:23:56;;;;;;;28.23;16.20;;;;;;;;;;1710536;28;10074448;-90
2023/04/17 06:24:56;;;;;;;29.17;15.20;;;;;;;;;;2048573;29;20019;-90
2023/04/17 06:26:00;;;;;;;25.05;15.10;;;;;;;;;;2048815;29;20034;-90
2023/04/17 06:27:32;;;;;;;25.98;14.75;;;;;;;;;;2048945;28;20039;-92
2023/04/17 06:29:07;;;;;;;23.55;13.57;;;;;;;;;;2044755;28;20106;-92
2023/04/17 06:30:08;;;;;;;24.25;14.35;;;;;;;;;;2048038;28;20134;-91
2023/04/17 06:31:10;;;;;;;25.67;14.07;;;;;;;;;;2048711;28;20098;-90
2023/04/17 06:32:10;;;;;;;25.45;16.40;;;;;;;;;;2056016;28;20062;-92
2023/04/17 06:33:41;;;;;;;30.13;18.02;;;;;;;;;;2055605;28;20050;-92
2023/04/17 06:34:42;;;;;;;27.67;17.67;;;;;;;;;;2057231;28;20027;-90
2023/04/17 06:35:45;;;;;;;33.60;19.00;;;;;;;;;;2059591;28;20023;-91
2023/04/17 06:37:01;;;;;;;28.17;17.83;;;;;;;;;;2059267;28;20019;-90
2023/04/17 06:38:03;;;;;;;29.02;17.08;;;;;;;;;;2059726;28;20066;-90
2023/04/17 06:39:17;;;;;;;27.38;17.20;;;;;;;;;;2060685;28;20030;-89